createdAt,value
2023-05-06T00:01:30.040Z,101066.22
2023-05-06T00:03:58.011Z,101072.38
2023-05-06T00:06:27.453Z,101071.69
2023-05-06T00:08:55.048Z,101071.06
2023-05-06T00:11:22.670Z,101066.00
2023-05-06T00:13:50.310Z,101060.91
2023-05-06T00:16:18.004Z,101061.06
2023-05-06T00:18:47.073Z,101057.69
2023-05-06T00:21:14.667Z,101067.56
2023-05-06T00:23:44.067Z,101068.53
2023-05-06T00:26:12.156Z,101070.22
2023-05-06T00:28:39.701Z,101068.53
2023-05-06T00:31:10.226Z,101067.94
2023-05-06T00:37:53.074Z,101063.22
2023-05-06T00:40:47.166Z,101059.13
2023-05-06T00:43:15.595Z,101061.16
2023-05-06T00:45:43.265Z,101058.72
2023-05-06T00:48:11.466Z,101063.19
2023-05-06T00:50:40.588Z,101057.88
2023-05-06T00:53:10.714Z,101057.88
2023-05-06T00:55:39.147Z,101063.19
2023-05-06T00:58:07.317Z,101063.19
2023-05-06T01:00:35.563Z,101062.47
2023-05-06T01:03:04.079Z,101058.25
2023-05-06T01:05:36.767Z,101057.53
2023-05-06T01:08:14.156Z,101056.69
2023-05-06T01:10:50.726Z,101058.38
2023-05-06T01:13:24.526Z,101052.09
2023-05-06T01:15:55.729Z,101046.78
2023-05-06T01:18:26.556Z,101041.47
2023-05-06T01:20:55.834Z,101044.72
2023-05-06T01:23:24.786Z,101052.09
2023-05-06T01:25:52.473Z,101045.06
2023-05-06T01:28:20.754Z,101042.53
2023-05-06T01:30:56.613Z,101053.16
2023-05-06T01:33:34.219Z,101043.38
2023-05-06T01:36:12.195Z,101044.69
2023-05-06T01:38:49.787Z,101047.34
2023-05-06T01:41:19.107Z,101048.56
2023-05-06T01:43:48.843Z,101054.81
2023-05-06T01:46:20.155Z,101054.81
2023-05-06T01:48:51.159Z,101058.34
2023-05-06T01:51:22.920Z,101064.59
2023-05-06T01:53:51.817Z,101066.31
2023-05-06T01:56:20.511Z,101061.84
2023-05-06T01:58:48.187Z,101063.03
2023-05-06T02:01:16.172Z,101068.47
2023-05-06T02:03:44.201Z,101069.41
2023-05-06T02:06:12.473Z,101075.66
2023-05-06T02:08:41.232Z,101071.44
2023-05-06T02:11:14.389Z,101074.94
2023-05-06T02:13:43.080Z,101072.41
2023-05-06T02:16:11.670Z,101075.91
2023-05-06T02:18:40.068Z,101072.50
2023-05-06T02:21:10.926Z,101077.09
2023-05-06T02:23:38.535Z,101072.75
2023-05-06T02:26:07.077Z,101079.16
2023-05-06T02:28:37.910Z,101078.28
2023-05-06T02:31:06.264Z,101079.38
2023-05-06T02:33:35.054Z,101081.31
2023-05-06T02:36:03.026Z,101081.41
2023-05-06T02:38:31.090Z,101079.59
2023-05-06T02:40:58.634Z,101083.19
2023-05-06T02:43:27.194Z,101081.41
2023-05-06T02:45:57.288Z,101085.84
2023-05-06T02:48:26.729Z,101080.56
2023-05-06T02:50:56.086Z,101081.53
2023-05-06T02:53:24.461Z,101078.03
2023-05-06T02:55:52.186Z,101080.78
2023-05-06T02:58:19.769Z,101083.56
2023-05-06T03:00:47.547Z,101087.16
2023-05-06T03:03:18.799Z,101078.34
2023-05-06T03:05:46.586Z,101070.41
2023-05-06T03:08:14.155Z,101073.06
2023-05-06T03:10:44.057Z,101066.91
2023-05-06T03:13:12.086Z,101065.09
2023-05-06T03:15:39.885Z,101074.88
2023-05-06T03:18:11.295Z,101074.75
2023-05-06T03:20:41.317Z,101069.44
2023-05-06T03:23:08.950Z,101077.31
2023-05-06T03:25:37.130Z,101066.69
2023-05-06T03:28:06.077Z,101062.13
2023-05-06T03:30:35.271Z,101065.59
2023-05-06T03:33:06.487Z,101071.63
2023-05-06T03:35:34.912Z,101067.19
2023-05-06T03:38:05.091Z,101062.63
2023-05-06T03:40:40.280Z,101058.16
2023-05-06T03:43:10.377Z,101063.34
2023-05-06T03:45:38.096Z,101065.97
2023-05-06T03:48:07.190Z,101067.66
2023-05-06T03:50:40.269Z,101065.03
2023-05-06T03:53:09.552Z,101068.41
2023-05-06T03:55:40.696Z,101072.75
2023-05-06T03:58:10.091Z,101076.97
2023-05-06T04:00:37.751Z,101076.97
2023-05-06T04:03:05.461Z,101084.72
2023-05-06T04:05:42.058Z,101086.19
2023-05-06T04:08:12.861Z,101081.81
2023-05-06T04:10:47.084Z,101092.34
2023-05-06T04:13:21.799Z,101086.19
2023-05-06T04:15:50.621Z,101076.41
2023-05-06T04:18:22.636Z,101080.75
2023-05-06T04:21:00.043Z,101084.97
2023-05-06T04:23:30.367Z,101093.69
2023-05-06T04:25:59.468Z,101097.88
2023-05-06T04:28:30.106Z,101094.16
2023-05-06T04:30:57.729Z,101090.44
2023-05-06T04:33:34.495Z,101098.03
2023-05-06T04:36:29.964Z,101095.91
2023-05-06T04:39:21.098Z,101099.00
2023-05-06T04:41:50.056Z,101098.66
2023-05-06T04:44:25.078Z,101098.44
2023-05-06T04:46:54.672Z,101095.31
2023-05-06T04:49:22.491Z,101092.28
2023-05-06T04:51:51.268Z,101098.22
2023-05-06T04:54:22.093Z,101095.22
2023-05-06T04:56:51.769Z,101101.09
2023-05-06T04:59:22.559Z,101108.59
2023-05-06T05:01:50.498Z,101116.09
2023-05-06T05:04:18.250Z,101109.69
2023-05-06T05:06:46.914Z,101112.97
2023-05-06T05:09:15.273Z,101126.84
2023-05-06T05:11:46.543Z,101125.63
2023-05-06T05:14:18.094Z,101127.19
2023-05-06T05:16:45.911Z,101128.31
2023-05-06T05:19:14.503Z,101128.03
2023-05-06T05:21:44.087Z,101117.53
2023-05-06T05:24:13.468Z,101116.22
2023-05-06T05:26:41.382Z,101117.06
2023-05-06T05:29:11.151Z,101115.84
2023-05-06T05:31:41.216Z,101121.03
2023-05-06T05:34:11.245Z,101120.91
2023-05-06T05:36:38.860Z,101126.69
2023-05-06T05:39:11.093Z,101127.91
2023-05-06T05:42:08.985Z,101128.63
2023-05-06T05:44:42.108Z,101131.75
2023-05-06T05:47:11.312Z,101134.88
2023-05-06T05:49:40.716Z,101137.88
2023-05-06T05:52:09.732Z,101127.75
2023-05-06T05:54:44.091Z,101132.59
2023-05-06T05:57:12.487Z,101128.72
2023-05-06T05:59:42.093Z,101133.78
2023-05-06T06:02:09.794Z,101132.19
2023-05-06T06:05:03.396Z,101135.56
2023-05-06T06:07:35.634Z,101142.47
2023-05-06T06:10:04.335Z,101129.72
2023-05-06T06:12:32.039Z,101133.59
2023-05-06T06:15:07.147Z,101130.03
2023-05-06T06:17:36.111Z,101131.00
2023-05-06T06:20:09.020Z,101138.97
2023-05-06T06:22:39.079Z,101137.91
2023-05-06T06:25:07.878Z,101132.16
2023-05-06T06:27:36.381Z,101143.03
2023-05-06T06:30:06.293Z,101134.72
2023-05-06T06:32:34.197Z,101147.00
2023-05-06T06:35:02.067Z,101151.50
2023-05-06T06:37:29.844Z,101146.16
2023-05-06T06:39:57.631Z,101150.38
2023-05-06T06:42:25.936Z,101141.88
2023-05-06T06:45:09.795Z,101139.44
2023-05-06T06:48:04.240Z,101147.84
2023-05-06T06:50:35.537Z,101154.47
2023-05-06T06:53:06.239Z,101156.50
2023-05-06T06:55:34.245Z,101147.56
2023-05-06T06:58:01.847Z,101159.94
2023-05-06T07:00:30.814Z,101153.94
2023-05-06T07:02:58.458Z,101158.75
2023-05-06T07:05:28.093Z,101159.97
2023-05-06T07:07:56.282Z,101170.56
2023-05-06T07:10:24.425Z,101164.38
2023-05-06T07:12:52.079Z,101163.25
2023-05-06T07:15:20.007Z,101165.81
2023-05-06T07:17:48.948Z,101166.53
2023-05-06T07:20:17.161Z,101171.19
2023-05-06T07:22:45.607Z,101171.56
2023-05-06T07:25:17.095Z,101166.53
2023-05-06T07:27:44.713Z,101175.63
2023-05-06T07:30:12.836Z,101179.13
2023-05-06T07:32:41.538Z,101170.47
2023-05-06T07:35:11.477Z,101169.78
2023-05-06T07:37:39.509Z,101163.19
2023-05-06T07:40:09.193Z,101163.81
2023-05-06T07:42:37.075Z,101160.44
2023-05-06T07:45:05.652Z,101160.03
2023-05-06T07:47:35.163Z,101163.13
2023-05-06T07:50:04.881Z,101162.00
2023-05-06T07:52:34.370Z,101162.44
2023-05-06T07:55:01.942Z,101170.03
2023-05-06T07:57:30.102Z,101167.66
2023-05-06T07:59:58.397Z,101173.03
2023-05-06T08:02:27.281Z,101171.34
2023-05-06T08:04:56.254Z,101175.81
2023-05-06T08:07:24.124Z,101183.28
2023-05-06T08:09:54.228Z,101177.66
2023-05-06T08:12:22.495Z,101189.34
2023-05-06T08:14:51.731Z,101181.75
2023-05-06T08:17:20.349Z,101185.25
2023-05-06T08:19:49.615Z,101189.06
2023-05-06T08:22:17.445Z,101187.66
2023-05-06T08:24:46.040Z,101186.94
2023-05-06T08:27:19.207Z,101187.50
2023-05-06T08:29:47.092Z,101192.00
2023-05-06T08:32:14.697Z,101189.03
2023-05-06T08:34:42.266Z,101193.47
2023-05-06T08:37:10.851Z,101191.63
2023-05-06T08:40:05.203Z,101190.03
2023-05-06T08:42:37.341Z,101198.31
2023-05-06T08:45:07.122Z,101195.06
2023-05-06T08:47:35.297Z,101194.34
2023-05-06T08:50:03.344Z,101186.41
2023-05-06T08:52:32.420Z,101194.00
2023-05-06T08:55:05.086Z,101187.63
2023-05-06T08:57:35.224Z,101193.72
2023-05-06T09:00:07.138Z,101187.59
2023-05-06T09:02:36.236Z,101195.25
2023-05-06T09:05:05.685Z,101193.75
2023-05-06T09:07:34.189Z,101194.91
2023-05-06T09:10:06.839Z,101199.88
2023-05-06T09:12:42.145Z,101197.56
2023-05-06T09:15:11.512Z,101199.63
2023-05-06T09:17:40.189Z,101195.78
2023-05-06T09:20:12.491Z,101194.78
2023-05-06T09:22:41.206Z,101193.44
2023-05-06T09:25:12.350Z,101187.91
2023-05-06T09:27:42.112Z,101192.94
2023-05-06T09:30:13.112Z,101188.50
2023-05-06T09:32:41.684Z,101189.13
2023-05-06T09:35:11.035Z,101180.59
2023-05-06T09:37:41.102Z,101182.72
2023-05-06T09:40:11.061Z,101185.94
2023-05-06T09:42:42.114Z,101185.13
2023-05-06T09:45:11.273Z,101183.75
2023-05-06T09:47:40.041Z,101186.09
2023-05-06T09:50:12.106Z,101188.28
2023-05-06T09:52:40.106Z,101175.59
2023-05-06T09:55:09.142Z,101165.75
2023-05-06T09:57:43.109Z,101163.75
2023-05-06T10:00:13.112Z,101161.63
2023-05-06T10:02:42.318Z,101156.78
2023-05-06T10:05:12.582Z,101159.63
2023-05-06T10:07:45.204Z,101169.03
2023-05-06T10:10:14.249Z,101156.41
2023-05-06T10:12:41.905Z,101156.41
2023-05-06T10:15:12.095Z,101157.75
2023-05-06T10:17:43.238Z,101152.88
2023-05-06T10:20:14.911Z,101154.03
2023-05-06T10:22:53.243Z,101150.66
2023-05-06T10:25:28.485Z,101154.19
2023-05-06T10:27:56.090Z,101143.72
2023-05-06T10:30:27.499Z,101139.69
2023-05-06T10:32:57.926Z,101147.75
2023-05-06T10:35:36.205Z,101140.97
2023-05-06T10:38:06.139Z,101141.28
2023-05-06T10:40:34.194Z,101129.63
2023-05-06T10:43:27.014Z,101121.66
2023-05-06T10:46:04.382Z,101125.84
2023-05-06T10:48:34.324Z,101118.56
2023-05-06T10:51:24.226Z,101117.78
2023-05-06T10:54:03.724Z,101124.97
2023-05-06T10:56:34.104Z,101117.56
2023-05-06T10:59:08.742Z,101121.44
2023-05-06T11:01:39.311Z,101119.53
2023-05-06T11:04:09.461Z,101109.91
2023-05-06T11:06:41.038Z,101112.19
2023-05-06T11:09:17.315Z,101106.72
2023-05-06T11:12:00.292Z,101102.69
2023-05-06T11:14:29.979Z,101103.63
2023-05-06T11:17:01.379Z,101095.56
2023-05-06T11:19:30.933Z,101096.34
2023-05-06T11:22:00.295Z,101101.00
2023-05-06T11:24:29.984Z,101097.09
2023-05-06T11:26:59.207Z,101096.56
2023-05-06T11:29:27.840Z,101091.25
2023-05-06T11:31:55.753Z,101094.25
2023-05-06T11:34:27.185Z,101089.69
2023-05-06T11:36:59.161Z,101091.19
2023-05-06T11:39:30.727Z,101097.88
2023-05-06T11:42:01.116Z,101092.22
2023-05-06T11:44:31.219Z,101089.34
2023-05-06T11:47:05.134Z,101088.69
2023-05-06T11:49:38.401Z,101085.91
2023-05-06T11:52:06.862Z,101097.81
2023-05-06T11:54:37.156Z,101086.28
2023-05-06T11:57:06.723Z,101099.69
2023-05-06T11:59:38.138Z,101089.50
2023-05-06T12:02:07.947Z,101092.06
2023-05-06T12:04:41.404Z,101097.38
2023-05-06T12:07:12.144Z,101098.13
2023-05-06T12:09:43.206Z,101094.59
2023-05-06T12:12:13.299Z,101093.25
2023-05-06T12:14:47.122Z,101084.50
2023-05-06T12:17:16.468Z,101089.97
2023-05-06T12:19:47.063Z,101086.31
2023-05-06T12:22:17.871Z,101085.75
2023-05-06T12:24:45.747Z,101079.53
2023-05-06T12:27:13.362Z,101079.25
2023-05-06T12:29:41.676Z,101079.69
2023-05-06T12:32:10.884Z,101077.38
2023-05-06T12:34:41.221Z,101083.22
2023-05-06T12:37:12.132Z,101075.72
2023-05-06T12:39:41.420Z,101068.81
2023-05-06T12:42:09.041Z,101071.06
2023-05-06T12:44:39.256Z,101073.38
2023-05-06T12:47:09.178Z,101071.22
2023-05-06T12:49:51.634Z,101071.16
2023-05-06T12:52:21.888Z,101068.28
2023-05-06T12:54:51.705Z,101072.09
2023-05-06T12:57:20.129Z,101062.94
2023-05-06T12:59:51.247Z,101060.44
2023-05-06T13:02:19.093Z,101056.13
2023-05-06T13:04:47.314Z,101051.09
2023-05-06T13:07:16.132Z,101061.16
2023-05-06T13:09:45.368Z,101053.69
2023-05-06T13:12:13.645Z,101060.19
2023-05-06T13:14:41.407Z,101049.56
2023-05-06T13:17:09.298Z,101048.16
2023-05-06T13:19:37.310Z,101049.88
2023-05-06T13:22:04.940Z,101052.06
2023-05-06T13:24:33.238Z,101050.03
2023-05-06T13:27:03.275Z,101051.34
2023-05-06T13:29:31.852Z,101049.66
2023-05-06T13:32:02.146Z,101045.03
2023-05-06T13:34:32.136Z,101048.97
2023-05-06T13:37:00.298Z,101041.75
2023-05-06T13:39:27.867Z,101036.81
2023-05-06T13:41:55.585Z,101034.22
2023-05-06T13:44:25.472Z,101030.72
2023-05-06T13:46:55.152Z,101027.50
2023-05-06T13:49:23.006Z,101019.84
2023-05-06T13:51:50.851Z,101023.44
2023-05-06T13:54:18.429Z,101021.53
2023-05-06T13:56:46.270Z,101017.81
2023-05-06T13:59:14.008Z,101012.13
2023-05-06T14:01:43.561Z,101021.50
2023-05-06T14:04:11.195Z,101022.13
2023-05-06T14:06:42.674Z,101018.53
2023-05-06T14:09:11.702Z,101012.28
2023-05-06T14:11:39.793Z,101017.13
2023-05-06T14:14:07.695Z,101013.34
2023-05-06T14:16:35.432Z,101009.59
2023-05-06T14:19:05.636Z,101010.88
2023-05-06T14:21:34.527Z,101011.28
2023-05-06T14:24:02.199Z,101006.06
2023-05-06T14:26:30.167Z,101006.72
2023-05-06T14:28:58.639Z,101009.03
2023-05-06T14:31:26.645Z,101005.97
2023-05-06T14:33:54.859Z,100999.72
2023-05-06T14:36:24.239Z,100992.88
2023-05-06T14:38:51.831Z,100993.69
2023-05-06T14:41:21.255Z,100992.41
2023-05-06T14:43:49.130Z,100996.66
2023-05-06T14:46:17.630Z,100985.16
2023-05-06T14:48:46.169Z,100985.81
2023-05-06T14:51:37.946Z,100978.75
2023-05-06T14:54:07.114Z,100979.97
2023-05-06T14:56:34.747Z,100983.94
2023-05-06T14:59:03.940Z,100984.09
2023-05-06T15:01:33.449Z,100978.09
2023-05-06T15:04:01.259Z,100974.56
2023-05-06T15:06:29.559Z,100976.25
2023-05-06T15:08:58.124Z,100981.06
2023-05-06T15:11:27.139Z,100970.44
2023-05-06T15:13:58.594Z,100979.75
2023-05-06T15:16:28.222Z,100979.94
2023-05-06T15:18:57.244Z,100980.75
2023-05-06T15:21:24.866Z,100985.91
2023-05-06T15:23:52.443Z,100976.31
2023-05-06T15:26:20.042Z,100983.81
2023-05-06T15:28:48.952Z,100978.84
2023-05-06T15:31:16.625Z,100984.06
2023-05-06T15:33:44.827Z,100984.50
2023-05-06T15:36:12.671Z,100977.56
2023-05-06T15:38:59.873Z,100984.81
2023-05-06T15:41:30.303Z,100981.53
2023-05-06T15:44:00.770Z,100987.75
2023-05-06T15:46:30.211Z,100984.44
2023-05-06T15:49:17.852Z,100989.66
2023-05-06T15:51:46.187Z,100988.97
2023-05-06T15:54:13.775Z,100987.72
2023-05-06T15:56:41.804Z,100979.34
2023-05-06T15:59:12.074Z,100985.31
2023-05-06T16:04:12.696Z,100978.13
2023-05-06T16:06:40.404Z,100976.47
2023-05-06T16:09:09.173Z,100975.59
2023-05-06T16:11:36.729Z,100982.69
2023-05-06T16:14:05.035Z,100987.47
2023-05-06T16:16:34.384Z,100974.72
2023-05-06T16:19:02.004Z,100980.09
2023-05-06T16:21:29.736Z,100977.97
2023-05-06T16:23:59.236Z,100977.53
2023-05-06T16:26:26.795Z,100981.66
2023-05-06T16:28:54.649Z,100982.25
2023-05-06T16:31:22.345Z,100976.59
2023-05-06T16:33:51.311Z,100979.28
2023-05-06T16:36:19.795Z,100977.38
2023-05-06T16:38:47.668Z,100973.22
2023-05-06T16:41:15.362Z,100969.56
2023-05-06T16:43:42.934Z,100975.16
2023-05-06T16:46:10.640Z,100971.00
2023-05-06T16:48:39.383Z,100967.84
2023-05-06T16:51:13.596Z,100967.22
2023-05-06T16:53:43.171Z,100969.72
2023-05-06T16:56:10.819Z,100965.72
2023-05-06T16:58:38.597Z,100961.34
2023-05-06T17:01:07.929Z,100961.75
2023-05-06T17:03:37.642Z,100959.22
2023-05-06T17:06:06.246Z,100962.53
2023-05-06T17:08:36.920Z,100965.59
2023-05-06T17:11:07.077Z,100963.47
2023-05-06T17:13:34.689Z,100965.53
2023-05-06T17:16:02.486Z,100965.28
2023-05-06T17:18:30.726Z,100969.84
2023-05-06T17:20:58.444Z,100972.75
2023-05-06T17:23:27.258Z,100971.06
2023-05-06T17:25:57.901Z,100979.34
2023-05-06T17:28:25.807Z,100967.06
2023-05-06T17:30:53.655Z,100974.53
2023-05-06T17:33:21.756Z,100973.88
2023-05-06T17:35:49.302Z,100978.66
2023-05-06T17:38:17.690Z,100975.47
2023-05-06T17:40:45.283Z,100976.03
2023-05-06T17:43:14.215Z,100975.59
2023-05-06T17:45:42.207Z,100974.09
2023-05-06T17:48:11.353Z,100980.72
2023-05-06T17:50:39.408Z,100975.91
2023-05-06T17:53:06.987Z,100974.78
2023-05-06T17:55:34.614Z,100984.75
2023-05-06T17:58:02.365Z,100974.50
2023-05-06T18:00:31.393Z,100978.41
2023-05-06T18:03:00.331Z,100987.75
2023-05-06T18:05:28.103Z,100990.81
2023-05-06T18:07:55.838Z,101019.00
2023-05-06T18:10:23.427Z,101033.25
2023-05-06T18:12:51.144Z,101044.41
2023-05-06T18:15:18.903Z,101041.03
2023-05-06T18:17:47.820Z,101058.72
2023-05-06T18:20:16.049Z,101059.03
2023-05-06T18:22:44.258Z,101063.59
2023-05-06T18:25:12.197Z,101072.22
2023-05-06T18:27:40.158Z,101061.91
2023-05-06T18:30:10.172Z,101064.31
2023-05-06T18:32:38.303Z,101070.13
2023-05-06T18:35:08.169Z,101068.50
2023-05-06T18:37:36.792Z,101071.41
2023-05-06T18:40:05.867Z,101067.44
2023-05-06T18:42:34.037Z,101070.19
2023-05-06T18:45:04.520Z,101070.41
2023-05-06T18:47:32.519Z,101081.19
2023-05-06T18:50:00.693Z,101086.09
2023-05-06T18:52:30.045Z,101079.22
2023-05-06T18:54:57.634Z,101081.13
2023-05-06T18:57:27.001Z,101075.91
2023-05-06T18:59:54.689Z,101081.16
2023-05-06T19:02:22.442Z,101083.00
2023-05-06T19:04:51.047Z,101084.69
2023-05-06T19:07:20.293Z,101074.81
2023-05-06T19:09:49.345Z,101085.38
2023-05-06T19:12:18.245Z,101080.00
2023-05-06T19:14:47.198Z,101091.44
2023-05-06T19:17:15.779Z,101092.25
2023-05-06T19:19:45.636Z,101087.53
2023-05-06T19:22:15.325Z,101083.84
2023-05-06T19:24:42.989Z,101084.34
2023-05-06T19:27:11.923Z,101084.00
2023-05-06T19:29:40.256Z,101088.19
2023-05-06T19:32:09.422Z,101092.53
2023-05-06T19:34:37.002Z,101080.44
2023-05-06T19:37:04.621Z,101083.78
2023-05-06T19:39:32.729Z,101089.66
2023-05-06T19:42:00.307Z,101083.94
2023-05-06T19:44:29.281Z,101081.75
2023-05-06T19:46:56.853Z,101089.28
2023-05-06T19:49:24.452Z,101088.78
2023-05-06T19:51:52.113Z,101085.56
2023-05-06T19:54:19.784Z,101090.56
2023-05-06T19:56:49.633Z,101086.38
2023-05-06T19:59:19.209Z,101083.19
2023-05-06T20:01:48.196Z,101079.28
2023-05-06T20:04:16.104Z,101078.94
2023-05-06T20:06:43.865Z,101089.00
2023-05-06T20:09:12.177Z,101094.00
2023-05-06T20:11:39.829Z,101093.34
2023-05-06T20:14:07.513Z,101092.81
2023-05-06T20:16:36.021Z,101087.59
2023-05-06T20:19:05.234Z,101085.19
2023-05-06T20:21:33.725Z,101071.97
2023-05-06T20:24:01.405Z,101074.81
2023-05-06T20:26:29.006Z,101074.13
2023-05-06T20:28:56.555Z,101077.78
2023-05-06T20:31:24.757Z,101078.97
2023-05-06T20:33:52.534Z,101078.13
2023-05-06T20:36:22.336Z,101081.19
2023-05-06T20:38:51.357Z,101088.03
2023-05-06T20:41:19.789Z,101081.56
2023-05-06T20:43:47.381Z,101087.72
2023-05-06T20:46:15.195Z,101093.38
2023-05-06T20:48:44.180Z,101091.03
2023-05-06T20:51:12.106Z,101090.34
2023-05-06T20:53:41.831Z,101087.97
2023-05-06T20:56:17.429Z,101085.47
2023-05-06T20:58:45.710Z,101096.34
2023-05-06T21:01:14.312Z,101096.34
2023-05-06T21:03:42.898Z,101094.63
2023-05-06T21:06:11.106Z,101086.78
2023-05-06T21:08:38.887Z,101093.81
2023-05-06T21:11:08.224Z,101088.59
2023-05-06T21:13:37.093Z,101089.44
2023-05-06T21:16:05.281Z,101081.41
2023-05-06T21:18:33.075Z,101085.94
2023-05-06T21:21:01.604Z,101091.28
2023-05-06T21:23:29.171Z,101084.94
2023-05-06T21:25:59.234Z,101088.44
2023-05-06T21:28:28.175Z,101095.66
2023-05-06T21:30:56.043Z,101079.56
2023-05-06T21:33:24.196Z,101079.72
2023-05-06T21:35:51.812Z,101087.78
2023-05-06T21:38:19.418Z,101080.56
2023-05-06T21:40:48.932Z,101075.38
2023-05-06T21:43:17.843Z,101076.22
2023-05-06T21:45:47.197Z,101084.25
2023-05-06T21:48:15.210Z,101087.78
2023-05-06T21:50:42.850Z,101083.25
2023-05-06T21:53:11.519Z,101079.72
2023-05-06T21:55:39.179Z,101076.22
2023-05-06T21:58:07.040Z,101078.06
2023-05-06T22:00:34.745Z,101081.03
2023-05-06T22:03:04.062Z,101081.03
2023-05-06T22:05:31.866Z,101076.69
2023-05-06T22:07:59.455Z,101076.84
2023-05-06T22:10:27.088Z,101079.53
2023-05-06T22:12:54.688Z,101086.72
2023-05-06T22:15:22.323Z,101077.97
2023-05-06T22:17:50.258Z,101075.47
2023-05-06T22:20:21.351Z,101073.13
2023-05-06T22:22:51.481Z,101072.94
2023-05-06T22:25:20.955Z,101070.28
2023-05-06T22:27:48.995Z,101072.13
2023-05-06T22:30:17.064Z,101078.47
2023-05-06T22:32:44.703Z,101078.47
2023-05-06T22:35:12.873Z,101078.47
2023-05-06T22:37:41.976Z,101075.63
2023-05-06T22:40:11.095Z,101073.78
2023-05-06T22:42:39.031Z,101075.47
2023-05-06T22:45:09.495Z,101073.94
2023-05-06T22:47:37.264Z,101072.13
2023-05-06T22:50:06.628Z,101067.88
2023-05-06T22:52:34.304Z,101073.25
2023-05-06T22:55:04.383Z,101062.69
2023-05-06T22:57:32.102Z,101070.06
2023-05-06T23:00:01.602Z,101070.22
2023-05-06T23:02:29.435Z,101060.47
2023-05-06T23:04:57.517Z,101066.84
2023-05-06T23:07:25.339Z,101061.47
2023-05-06T23:09:52.944Z,101060.47
2023-05-06T23:12:22.236Z,101055.97
2023-05-06T23:14:50.797Z,101056.97
2023-05-06T23:17:18.359Z,101057.81
2023-05-06T23:19:46.098Z,101060.47
2023-05-06T23:22:13.699Z,101056.97
2023-05-06T23:24:42.265Z,101063.31
2023-05-06T23:27:10.302Z,101060.66
2023-05-06T23:29:39.343Z,101059.81
2023-05-06T23:32:07.927Z,101061.66
2023-05-06T23:34:35.717Z,101057.28
2023-05-06T23:37:03.632Z,101056.59
2023-05-06T23:39:31.208Z,101055.91
2023-05-06T23:42:01.221Z,101056.06
2023-05-06T23:44:29.552Z,101057.06
2023-05-06T23:46:58.511Z,101058.91
2023-05-06T23:49:26.324Z,101062.56
2023-05-06T23:51:54.216Z,101069.63
2023-05-06T23:54:22.370Z,101059.22
2023-05-06T23:56:50.567Z,101063.72
2023-05-06T23:59:18.304Z,101055.03
